sensor_id;sensor_type;location;lat;lon;timestamp;P1;durP1;ratioP1;P2;durP2;ratioP2
26750;SDS011;14345;48.272;25.926;2023-07-16T00:01:18;8.80;;;5.88;;
26750;SDS011;14345;48.272;25.926;2023-07-16T00:03:44;10.63;;;6.07;;
26750;SDS011;14345;48.272;25.926;2023-07-16T00:06:10;7.63;;;5.15;;
26750;SDS011;14345;48.272;25.926;2023-07-16T00:08:36;8.40;;;5.68;;
26750;SDS011;14345;48.272;25.926;2023-07-16T00:11:03;8.52;;;5.13;;
26750;SDS011;14345;48.272;25.926;2023-07-16T00:13:29;12.05;;;5.82;;
26750;SDS011;14345;48.272;25.926;2023-07-16T00:15:55;14.48;;;6.20;;
26750;SDS011;14345;48.272;25.926;2023-07-16T00:18:21;9.57;;;5.78;;
26750;SDS011;14345;48.272;25.926;2023-07-16T00:20:47;12.07;;;5.97;;
26750;SDS011;14345;48.272;25.926;2023-07-16T00:23:13;9.57;;;5.95;;
26750;SDS011;14345;48.272;25.926;2023-07-16T00:25:39;8.43;;;5.60;;
26750;SDS011;14345;48.272;25.926;2023-07-16T00:28:05;13.15;;;5.60;;
26750;SDS011;14345;48.272;25.926;2023-07-16T00:30:31;11.20;;;5.82;;
26750;SDS011;14345;48.272;25.926;2023-07-16T00:32:57;9.50;;;5.63;;
26750;SDS011;14345;48.272;25.926;2023-07-16T00:35:23;11.77;;;5.95;;
26750;SDS011;14345;48.272;25.926;2023-07-16T00:37:49;7.38;;;5.32;;
26750;SDS011;14345;48.272;25.926;2023-07-16T00:40:15;6.97;;;4.70;;
26750;SDS011;14345;48.272;25.926;2023-07-16T00:42:41;9.55;;;5.10;;
26750;SDS011;14345;48.272;25.926;2023-07-16T00:45:08;9.98;;;5.38;;
26750;SDS011;14345;48.272;25.926;2023-07-16T00:47:35;10.68;;;5.82;;
26750;SDS011;14345;48.272;25.926;2023-07-16T00:50:01;7.50;;;5.75;;
26750;SDS011;14345;48.272;25.926;2023-07-16T00:52:27;10.65;;;5.90;;
26750;SDS011;14345;48.272;25.926;2023-07-16T00:54:53;6.85;;;5.10;;
26750;SDS011;14345;48.272;25.926;2023-07-16T00:57:19;8.65;;;5.80;;
26750;SDS011;14345;48.272;25.926;2023-07-16T00:59:45;12.98;;;6.47;;
26750;SDS011;14345;48.272;25.926;2023-07-16T01:02:11;10.13;;;6.20;;
26750;SDS011;14345;48.272;25.926;2023-07-16T01:04:37;10.18;;;6.20;;
26750;SDS011;14345;48.272;25.926;2023-07-16T01:07:04;9.75;;;5.22;;
26750;SDS011;14345;48.272;25.926;2023-07-16T01:09:32;9.07;;;5.28;;
26750;SDS011;14345;48.272;25.926;2023-07-16T01:12:02;9.45;;;5.85;;
26750;SDS011;14345;48.272;25.926;2023-07-16T01:14:28;9.80;;;5.88;;
26750;SDS011;14345;48.272;25.926;2023-07-16T01:16:55;10.02;;;5.63;;
26750;SDS011;14345;48.272;25.926;2023-07-16T01:19:24;9.38;;;5.10;;
26750;SDS011;14345;48.272;25.926;2023-07-16T01:29:44;8.85;;;5.63;;
26750;SDS011;14345;48.272;25.926;2023-07-16T01:32:12;10.02;;;5.13;;
26750;SDS011;14345;48.272;25.926;2023-07-16T01:34:39;8.02;;;5.03;;
26750;SDS011;14345;48.272;25.926;2023-07-16T01:37:05;10.68;;;6.03;;
26750;SDS011;14345;48.272;25.926;2023-07-16T01:39:32;7.95;;;5.25;;
26750;SDS011;14345;48.272;25.926;2023-07-16T01:41:58;11.85;;;6.05;;
26750;SDS011;14345;48.272;25.926;2023-07-16T01:44:24;7.85;;;5.38;;
26750;SDS011;14345;48.272;25.926;2023-07-16T01:49:35;6.38;;;4.82;;
26750;SDS011;14345;48.272;25.926;2023-07-16T01:52:02;11.32;;;5.45;;
26750;SDS011;14345;48.272;25.926;2023-07-16T01:54:28;7.72;;;4.97;;
26750;SDS011;14345;48.272;25.926;2023-07-16T01:56:55;7.65;;;5.50;;
26750;SDS011;14345;48.272;25.926;2023-07-16T01:59:21;8.93;;;5.35;;
26750;SDS011;14345;48.272;25.926;2023-07-16T02:01:47;9.20;;;5.25;;
26750;SDS011;14345;48.272;25.926;2023-07-16T02:04:13;11.93;;;6.05;;
26750;SDS011;14345;48.272;25.926;2023-07-16T02:06:39;9.65;;;5.70;;
26750;SDS011;14345;48.272;25.926;2023-07-16T02:09:05;8.88;;;5.30;;
26750;SDS011;14345;48.272;25.926;2023-07-16T02:11:31;7.57;;;5.22;;
26750;SDS011;14345;48.272;25.926;2023-07-16T02:13:57;9.57;;;5.35;;
26750;SDS011;14345;48.272;25.926;2023-07-16T02:16:23;6.80;;;5.00;;
26750;SDS011;14345;48.272;25.926;2023-07-16T02:18:49;11.57;;;5.40;;
26750;SDS011;14345;48.272;25.926;2023-07-16T02:21:15;8.32;;;5.45;;
26750;SDS011;14345;48.272;25.926;2023-07-16T02:23:41;7.03;;;5.22;;
26750;SDS011;14345;48.272;25.926;2023-07-16T02:26:07;6.07;;;5.10;;
26750;SDS011;14345;48.272;25.926;2023-07-16T02:28:34;8.55;;;5.35;;
26750;SDS011;14345;48.272;25.926;2023-07-16T02:31:00;8.18;;;5.05;;
26750;SDS011;14345;48.272;25.926;2023-07-16T02:33:26;7.63;;;5.07;;
26750;SDS011;14345;48.272;25.926;2023-07-16T02:35:52;9.43;;;5.07;;
26750;SDS011;14345;48.272;25.926;2023-07-16T02:38:18;9.00;;;4.55;;
26750;SDS011;14345;48.272;25.926;2023-07-16T02:40:45;9.30;;;5.88;;
26750;SDS011;14345;48.272;25.926;2023-07-16T02:43:12;8.40;;;5.63;;
26750;SDS011;14345;48.272;25.926;2023-07-16T02:45:38;9.18;;;5.57;;
26750;SDS011;14345;48.272;25.926;2023-07-16T02:48:05;7.57;;;5.10;;
26750;SDS011;14345;48.272;25.926;2023-07-16T02:50:34;8.98;;;5.55;;
26750;SDS011;14345;48.272;25.926;2023-07-16T02:53:01;8.15;;;5.18;;
26750;SDS011;14345;48.272;25.926;2023-07-16T02:55:27;8.82;;;5.72;;
26750;SDS011;14345;48.272;25.926;2023-07-16T02:57:53;8.82;;;5.13;;
26750;SDS011;14345;48.272;25.926;2023-07-16T03:00:19;7.65;;;5.15;;
26750;SDS011;14345;48.272;25.926;2023-07-16T03:02:45;9.20;;;5.00;;
26750;SDS011;14345;48.272;25.926;2023-07-16T03:05:11;7.95;;;4.97;;
26750;SDS011;14345;48.272;25.926;2023-07-16T03:07:37;9.40;;;5.30;;
26750;SDS011;14345;48.272;25.926;2023-07-16T03:10:03;8.48;;;5.28;;
26750;SDS011;14345;48.272;25.926;2023-07-16T03:12:29;9.15;;;5.72;;
26750;SDS011;14345;48.272;25.926;2023-07-16T03:14:55;8.73;;;6.03;;
26750;SDS011;14345;48.272;25.926;2023-07-16T03:17:21;7.45;;;5.38;;
26750;SDS011;14345;48.272;25.926;2023-07-16T03:19:47;9.02;;;5.50;;
26750;SDS011;14345;48.272;25.926;2023-07-16T03:22:14;9.73;;;5.20;;
26750;SDS011;14345;48.272;25.926;2023-07-16T03:24:40;11.00;;;5.50;;
26750;SDS011;14345;48.272;25.926;2023-07-16T03:27:06;7.30;;;5.13;;
26750;SDS011;14345;48.272;25.926;2023-07-16T03:29:34;6.65;;;5.18;;
26750;SDS011;14345;48.272;25.926;2023-07-16T03:32:00;7.63;;;5.65;;
26750;SDS011;14345;48.272;25.926;2023-07-16T03:34:26;7.90;;;5.10;;
26750;SDS011;14345;48.272;25.926;2023-07-16T03:36:52;7.38;;;5.35;;
26750;SDS011;14345;48.272;25.926;2023-07-16T03:39:18;7.57;;;5.45;;
26750;SDS011;14345;48.272;25.926;2023-07-16T03:41:44;8.80;;;5.80;;
26750;SDS011;14345;48.272;25.926;2023-07-16T03:44:10;9.10;;;5.85;;
26750;SDS011;14345;48.272;25.926;2023-07-16T03:46:36;10.98;;;5.68;;
26750;SDS011;14345;48.272;25.926;2023-07-16T03:49:02;7.45;;;5.20;;
26750;SDS011;14345;48.272;25.926;2023-07-16T03:51:28;8.18;;;5.38;;
26750;SDS011;14345;48.272;25.926;2023-07-16T03:53:54;8.70;;;5.32;;
26750;SDS011;14345;48.272;25.926;2023-07-16T03:56:20;7.38;;;4.93;;
26750;SDS011;14345;48.272;25.926;2023-07-16T03:58:46;7.82;;;5.53;;
26750;SDS011;14345;48.272;25.926;2023-07-16T04:01:12;11.18;;;6.40;;
26750;SDS011;14345;48.272;25.926;2023-07-16T04:03:38;8.55;;;6.30;;
26750;SDS011;14345;48.272;25.926;2023-07-16T04:06:05;10.30;;;5.60;;
26750;SDS011;14345;48.272;25.926;2023-07-16T04:08:31;9.75;;;5.80;;
26750;SDS011;14345;48.272;25.926;2023-07-16T04:10:57;8.77;;;5.93;;
26750;SDS011;14345;48.272;25.926;2023-07-16T04:13:24;10.05;;;5.88;;
26750;SDS011;14345;48.272;25.926;2023-07-16T04:15:50;10.85;;;5.43;;
26750;SDS011;14345;48.272;25.926;2023-07-16T04:18:18;7.45;;;5.25;;
26750;SDS011;14345;48.272;25.926;2023-07-16T04:20:44;10.43;;;5.70;;
26750;SDS011;14345;48.272;25.926;2023-07-16T04:23:10;8.73;;;5.20;;
26750;SDS011;14345;48.272;25.926;2023-07-16T04:25:36;9.15;;;5.68;;
26750;SDS011;14345;48.272;25.926;2023-07-16T04:28:02;12.73;;;5.88;;
26750;SDS011;14345;48.272;25.926;2023-07-16T04:30:29;10.73;;;5.65;;
26750;SDS011;14345;48.272;25.926;2023-07-16T04:32:55;8.13;;;5.50;;
26750;SDS011;14345;48.272;25.926;2023-07-16T04:35:21;8.50;;;5.50;;
26750;SDS011;14345;48.272;25.926;2023-07-16T04:37:47;9.85;;;5.50;;
26750;SDS011;14345;48.272;25.926;2023-07-16T04:40:13;7.53;;;5.07;;
26750;SDS011;14345;48.272;25.926;2023-07-16T04:42:39;6.47;;;5.07;;
26750;SDS011;14345;48.272;25.926;2023-07-16T04:45:05;13.95;;;8.60;;
26750;SDS011;14345;48.272;25.926;2023-07-16T04:47:31;12.43;;;7.28;;
26750;SDS011;14345;48.272;25.926;2023-07-16T04:50:00;9.35;;;6.57;;
26750;SDS011;14345;48.272;25.926;2023-07-16T04:52:26;7.93;;;5.43;;
26750;SDS011;14345;48.272;25.926;2023-07-16T04:54:52;8.35;;;5.57;;
26750;SDS011;14345;48.272;25.926;2023-07-16T04:57:18;7.38;;;5.32;;
26750;SDS011;14345;48.272;25.926;2023-07-16T04:59:44;8.23;;;6.13;;
26750;SDS011;14345;48.272;25.926;2023-07-16T05:02:10;8.27;;;5.40;;
26750;SDS011;14345;48.272;25.926;2023-07-16T05:04:37;8.35;;;6.05;;
26750;SDS011;14345;48.272;25.926;2023-07-16T05:07:03;7.70;;;6.20;;
26750;SDS011;14345;48.272;25.926;2023-07-16T05:09:29;8.15;;;5.90;;
26750;SDS011;14345;48.272;25.926;2023-07-16T05:11:55;9.70;;;6.05;;
26750;SDS011;14345;48.272;25.926;2023-07-16T05:14:21;7.85;;;5.82;;
26750;SDS011;14345;48.272;25.926;2023-07-16T05:16:47;9.25;;;5.60;;
26750;SDS011;14345;48.272;25.926;2023-07-16T05:19:13;10.68;;;6.18;;
26750;SDS011;14345;48.272;25.926;2023-07-16T05:21:39;9.13;;;6.28;;
26750;SDS011;14345;48.272;25.926;2023-07-16T05:24:05;7.85;;;5.72;;
26750;SDS011;14345;48.272;25.926;2023-07-16T05:26:31;8.80;;;6.07;;
26750;SDS011;14345;48.272;25.926;2023-07-16T05:28:58;11.95;;;5.53;;
26750;SDS011;14345;48.272;25.926;2023-07-16T05:31:24;8.30;;;5.43;;
26750;SDS011;14345;48.272;25.926;2023-07-16T05:33:50;6.07;;;5.03;;
26750;SDS011;14345;48.272;25.926;2023-07-16T05:36:16;6.68;;;5.50;;
26750;SDS011;14345;48.272;25.926;2023-07-16T05:38:42;9.93;;;7.82;;
26750;SDS011;14345;48.272;25.926;2023-07-16T05:41:08;13.85;;;6.65;;
26750;SDS011;14345;48.272;25.926;2023-07-16T05:43:34;9.82;;;8.07;;
26750;SDS011;14345;48.272;25.926;2023-07-16T05:46:00;10.43;;;7.50;;
26750;SDS011;14345;48.272;25.926;2023-07-16T05:48:26;10.85;;;7.53;;
26750;SDS011;14345;48.272;25.926;2023-07-16T05:50:52;7.93;;;6.32;;
26750;SDS011;14345;48.272;25.926;2023-07-16T05:53:18;8.82;;;5.80;;
26750;SDS011;14345;48.272;25.926;2023-07-16T05:55:44;8.40;;;6.22;;
26750;SDS011;14345;48.272;25.926;2023-07-16T05:58:10;7.80;;;5.30;;
26750;SDS011;14345;48.272;25.926;2023-07-16T06:00:36;9.73;;;5.63;;
26750;SDS011;14345;48.272;25.926;2023-07-16T06:03:02;7.82;;;5.00;;
26750;SDS011;14345;48.272;25.926;2023-07-16T06:05:28;10.50;;;5.35;;
26750;SDS011;14345;48.272;25.926;2023-07-16T06:07:59;7.97;;;5.80;;
26750;SDS011;14345;48.272;25.926;2023-07-16T06:10:25;7.63;;;4.95;;
26750;SDS011;14345;48.272;25.926;2023-07-16T06:12:51;6.20;;;5.35;;
26750;SDS011;14345;48.272;25.926;2023-07-16T06:15:17;6.25;;;4.80;;
26750;SDS011;14345;48.272;25.926;2023-07-16T06:17:43;7.60;;;5.40;;
26750;SDS011;14345;48.272;25.926;2023-07-16T06:20:09;8.70;;;5.07;;
26750;SDS011;14345;48.272;25.926;2023-07-16T06:22:36;8.18;;;5.00;;
26750;SDS011;14345;48.272;25.926;2023-07-16T06:25:03;9.63;;;5.75;;
26750;SDS011;14345;48.272;25.926;2023-07-16T06:27:29;6.75;;;5.10;;
26750;SDS011;14345;48.272;25.926;2023-07-16T06:29:55;7.22;;;4.85;;
26750;SDS011;14345;48.272;25.926;2023-07-16T06:32:21;5.20;;;4.30;;
26750;SDS011;14345;48.272;25.926;2023-07-16T06:34:47;5.28;;;4.40;;
26750;SDS011;14345;48.272;25.926;2023-07-16T06:37:13;6.15;;;5.28;;
26750;SDS011;14345;48.272;25.926;2023-07-16T06:39:39;7.18;;;5.55;;
26750;SDS011;14345;48.272;25.926;2023-07-16T06:42:05;9.18;;;6.05;;
26750;SDS011;14345;48.272;25.926;2023-07-16T06:44:31;8.18;;;5.65;;
26750;SDS011;14345;48.272;25.926;2023-07-16T06:46:57;6.93;;;5.13;;
26750;SDS011;14345;48.272;25.926;2023-07-16T06:49:23;7.90;;;4.93;;
26750;SDS011;14345;48.272;25.926;2023-07-16T06:51:49;9.65;;;4.90;;
26750;SDS011;14345;48.272;25.926;2023-07-16T06:54:15;7.10;;;5.43;;
26750;SDS011;14345;48.272;25.926;2023-07-16T06:56:41;7.57;;;5.82;;
26750;SDS011;14345;48.272;25.926;2023-07-16T06:59:07;9.32;;;5.78;;
26750;SDS011;14345;48.272;25.926;2023-07-16T07:01:33;7.63;;;5.78;;
26750;SDS011;14345;48.272;25.926;2023-07-16T07:03:59;8.82;;;5.40;;
26750;SDS011;14345;48.272;25.926;2023-07-16T07:06:25;8.18;;;5.13;;
26750;SDS011;14345;48.272;25.926;2023-07-16T07:08:51;6.57;;;5.47;;
26750;SDS011;14345;48.272;25.926;2023-07-16T07:11:18;8.63;;;5.53;;
26750;SDS011;14345;48.272;25.926;2023-07-16T07:13:44;6.38;;;4.90;;
26750;SDS011;14345;48.272;25.926;2023-07-16T07:16:10;8.93;;;5.35;;
26750;SDS011;14345;48.272;25.926;2023-07-16T07:18:36;6.82;;;4.97;;
26750;SDS011;14345;48.272;25.926;2023-07-16T07:21:02;6.57;;;4.60;;
26750;SDS011;14345;48.272;25.926;2023-07-16T07:23:28;7.00;;;4.97;;
26750;SDS011;14345;48.272;25.926;2023-07-16T07:25:54;7.97;;;5.25;;
26750;SDS011;14345;48.272;25.926;2023-07-16T07:28:20;6.05;;;4.38;;
26750;SDS011;14345;48.272;25.926;2023-07-16T07:30:46;5.82;;;4.00;;
26750;SDS011;14345;48.272;25.926;2023-07-16T07:33:12;4.70;;;3.80;;
26750;SDS011;14345;48.272;25.926;2023-07-16T07:35:38;7.88;;;5.13;;
26750;SDS011;14345;48.272;25.926;2023-07-16T07:38:04;5.05;;;4.55;;
26750;SDS011;14345;48.272;25.926;2023-07-16T07:40:30;9.18;;;5.47;;
26750;SDS011;14345;48.272;25.926;2023-07-16T07:42:56;7.95;;;4.90;;
26750;SDS011;14345;48.272;25.926;2023-07-16T07:45:23;5.30;;;4.32;;
26750;SDS011;14345;48.272;25.926;2023-07-16T07:47:49;9.90;;;5.05;;
26750;SDS011;14345;48.272;25.926;2023-07-16T07:50:15;5.20;;;4.25;;
26750;SDS011;14345;48.272;25.926;2023-07-16T07:52:41;8.45;;;4.20;;
26750;SDS011;14345;48.272;25.926;2023-07-16T07:55:07;7.50;;;4.57;;
26750;SDS011;14345;48.272;25.926;2023-07-16T07:57:33;9.50;;;5.47;;
26750;SDS011;14345;48.272;25.926;2023-07-16T07:59:59;7.53;;;4.75;;
26750;SDS011;14345;48.272;25.926;2023-07-16T08:02:25;5.40;;;4.28;;
26750;SDS011;14345;48.272;25.926;2023-07-16T08:04:51;8.73;;;4.70;;
26750;SDS011;14345;48.272;25.926;2023-07-16T08:07:18;5.55;;;4.05;;
26750;SDS011;14345;48.272;25.926;2023-07-16T08:09:44;5.82;;;4.28;;
26750;SDS011;14345;48.272;25.926;2023-07-16T08:12:10;6.45;;;5.13;;
26750;SDS011;14345;48.272;25.926;2023-07-16T08:14:36;7.45;;;4.85;;
26750;SDS011;14345;48.272;25.926;2023-07-16T08:17:02;7.20;;;4.93;;
26750;SDS011;14345;48.272;25.926;2023-07-16T08:19:28;6.07;;;4.47;;
26750;SDS011;14345;48.272;25.926;2023-07-16T08:21:54;5.47;;;4.28;;
26750;SDS011;14345;48.272;25.926;2023-07-16T08:24:20;6.78;;;4.00;;
26750;SDS011;14345;48.272;25.926;2023-07-16T08:26:46;7.38;;;4.35;;
26750;SDS011;14345;48.272;25.926;2023-07-16T08:29:12;5.68;;;4.13;;
26750;SDS011;14345;48.272;25.926;2023-07-16T08:31:38;7.88;;;4.40;;
26750;SDS011;14345;48.272;25.926;2023-07-16T08:34:05;6.28;;;4.75;;
26750;SDS011;14345;48.272;25.926;2023-07-16T08:36:32;8.15;;;4.40;;
26750;SDS011;14345;48.272;25.926;2023-07-16T08:38:58;6.60;;;3.92;;
26750;SDS011;14345;48.272;25.926;2023-07-16T08:41:24;6.72;;;4.38;;
26750;SDS011;14345;48.272;25.926;2023-07-16T08:43:50;7.72;;;4.10;;
26750;SDS011;14345;48.272;25.926;2023-07-16T08:46:17;5.60;;;4.03;;
26750;SDS011;14345;48.272;25.926;2023-07-16T08:48:43;6.15;;;3.88;;
26750;SDS011;14345;48.272;25.926;2023-07-16T08:51:10;5.40;;;4.13;;
26750;SDS011;14345;48.272;25.926;2023-07-16T08:53:39;4.25;;;3.60;;
26750;SDS011;14345;48.272;25.926;2023-07-16T08:56:05;6.15;;;3.90;;
26750;SDS011;14345;48.272;25.926;2023-07-16T08:58:31;5.57;;;4.35;;
26750;SDS011;14345;48.272;25.926;2023-07-16T09:00:58;5.32;;;3.97;;
26750;SDS011;14345;48.272;25.926;2023-07-16T09:03:25;4.00;;;3.05;;
26750;SDS011;14345;48.272;25.926;2023-07-16T09:05:51;4.00;;;3.45;;
26750;SDS011;14345;48.272;25.926;2023-07-16T09:08:17;6.13;;;4.00;;
26750;SDS011;14345;48.272;25.926;2023-07-16T09:10:43;5.88;;;3.58;;
26750;SDS011;14345;48.272;25.926;2023-07-16T09:13:09;6.78;;;4.03;;
26750;SDS011;14345;48.272;25.926;2023-07-16T09:15:35;6.97;;;3.42;;
26750;SDS011;14345;48.272;25.926;2023-07-16T09:18:03;4.03;;;3.38;;
26750;SDS011;14345;48.272;25.926;2023-07-16T09:20:29;6.10;;;3.58;;
26750;SDS011;14345;48.272;25.926;2023-07-16T09:22:56;6.07;;;3.42;;
26750;SDS011;14345;48.272;25.926;2023-07-16T09:25:31;7.15;;;3.95;;
26750;SDS011;14345;48.272;25.926;2023-07-16T09:28:03;9.75;;;4.00;;
26750;SDS011;14345;48.272;25.926;2023-07-16T09:30:33;5.65;;;3.35;;
26750;SDS011;14345;48.272;25.926;2023-07-16T09:33:15;5.00;;;3.78;;
26750;SDS011;14345;48.272;25.926;2023-07-16T09:35:41;5.85;;;3.83;;
26750;SDS011;14345;48.272;25.926;2023-07-16T09:38:08;6.30;;;3.80;;
26750;SDS011;14345;48.272;25.926;2023-07-16T09:40:35;3.65;;;3.28;;
26750;SDS011;14345;48.272;25.926;2023-07-16T09:43:01;5.03;;;3.58;;
26750;SDS011;14345;48.272;25.926;2023-07-16T09:45:28;4.82;;;3.88;;
26750;SDS011;14345;48.272;25.926;2023-07-16T09:47:54;4.70;;;3.15;;
26750;SDS011;14345;48.272;25.926;2023-07-16T09:50:21;6.22;;;3.95;;
26750;SDS011;14345;48.272;25.926;2023-07-16T09:52:50;4.68;;;3.65;;
26750;SDS011;14345;48.272;25.926;2023-07-16T09:55:16;5.07;;;3.60;;
26750;SDS011;14345;48.272;25.926;2023-07-16T09:57:44;3.95;;;3.25;;
26750;SDS011;14345;48.272;25.926;2023-07-16T10:00:10;8.13;;;3.67;;
26750;SDS011;14345;48.272;25.926;2023-07-16T10:02:37;5.35;;;3.63;;
26750;SDS011;14345;48.272;25.926;2023-07-16T10:05:17;5.05;;;3.17;;
26750;SDS011;14345;48.272;25.926;2023-07-16T10:07:50;4.40;;;3.20;;
26750;SDS011;14345;48.272;25.926;2023-07-16T10:10:17;7.78;;;3.88;;
26750;SDS011;14345;48.272;25.926;2023-07-16T10:12:53;7.07;;;3.20;;
26750;SDS011;14345;48.272;25.926;2023-07-16T10:15:26;4.68;;;3.92;;
26750;SDS011;14345;48.272;25.926;2023-07-16T10:17:52;7.03;;;3.67;;
26750;SDS011;14345;48.272;25.926;2023-07-16T10:20:37;4.30;;;3.35;;
26750;SDS011;14345;48.272;25.926;2023-07-16T10:23:11;3.85;;;3.10;;
26750;SDS011;14345;48.272;25.926;2023-07-16T10:25:37;4.28;;;3.45;;
26750;SDS011;14345;48.272;25.926;2023-07-16T10:28:03;4.80;;;3.22;;
26750;SDS011;14345;48.272;25.926;2023-07-16T10:30:30;4.65;;;3.20;;
26750;SDS011;14345;48.272;25.926;2023-07-16T10:32:56;4.15;;;3.08;;
26750;SDS011;14345;48.272;25.926;2023-07-16T10:35:22;8.45;;;3.20;;
26750;SDS011;14345;48.272;25.926;2023-07-16T10:37:48;5.40;;;3.03;;
26750;SDS011;14345;48.272;25.926;2023-07-16T10:40:14;4.05;;;3.10;;
26750;SDS011;14345;48.272;25.926;2023-07-16T10:42:41;3.47;;;2.60;;
26750;SDS011;14345;48.272;25.926;2023-07-16T10:45:11;7.07;;;3.00;;
26750;SDS011;14345;48.272;25.926;2023-07-16T10:47:39;3.60;;;2.70;;
26750;SDS011;14345;48.272;25.926;2023-07-16T10:50:07;4.47;;;2.50;;
26750;SDS011;14345;48.272;25.926;2023-07-16T10:52:33;4.93;;;2.67;;
26750;SDS011;14345;48.272;25.926;2023-07-16T10:54:59;2.83;;;2.45;;
26750;SDS011;14345;48.272;25.926;2023-07-16T10:57:25;3.92;;;2.88;;
26750;SDS011;14345;48.272;25.926;2023-07-16T10:59:52;3.28;;;2.72;;
26750;SDS011;14345;48.272;25.926;2023-07-16T11:02:18;4.57;;;2.50;;
26750;SDS011;14345;48.272;25.926;2023-07-16T11:04:45;2.63;;;2.35;;
26750;SDS011;14345;48.272;25.926;2023-07-16T11:07:11;3.78;;;2.10;;
26750;SDS011;14345;48.272;25.926;2023-07-16T11:09:47;4.45;;;2.60;;
26750;SDS011;14345;48.272;25.926;2023-07-16T11:12:14;2.42;;;2.22;;
26750;SDS011;14345;48.272;25.926;2023-07-16T11:14:44;6.47;;;2.30;;
26750;SDS011;14345;48.272;25.926;2023-07-16T11:17:10;6.13;;;2.30;;
26750;SDS011;14345;48.272;25.926;2023-07-16T11:19:36;2.10;;;1.90;;
26750;SDS011;14345;48.272;25.926;2023-07-16T11:22:03;3.03;;;2.20;;
26750;SDS011;14345;48.272;25.926;2023-07-16T11:24:36;4.72;;;2.10;;
26750;SDS011;14345;48.272;25.926;2023-07-16T11:29:33;4.50;;;2.33;;
26750;SDS011;14345;48.272;25.926;2023-07-16T11:32:00;3.58;;;2.25;;
26750;SDS011;14345;48.272;25.926;2023-07-16T11:34:26;3.00;;;2.22;;
26750;SDS011;14345;48.272;25.926;2023-07-16T11:36:52;2.47;;;2.00;;
26750;SDS011;14345;48.272;25.926;2023-07-16T11:39:18;2.45;;;2.05;;
26750;SDS011;14345;48.272;25.926;2023-07-16T11:41:57;3.97;;;2.15;;
26750;SDS011;14345;48.272;25.926;2023-07-16T11:44:23;1.88;;;1.52;;
26750;SDS011;14345;48.272;25.926;2023-07-16T11:46:49;4.13;;;2.33;;
26750;SDS011;14345;48.272;25.926;2023-07-16T11:49:15;3.08;;;1.95;;
26750;SDS011;14345;48.272;25.926;2023-07-16T11:51:41;4.20;;;1.92;;
26750;SDS011;14345;48.272;25.926;2023-07-16T11:54:09;3.78;;;2.38;;
26750;SDS011;14345;48.272;25.926;2023-07-16T11:56:36;4.78;;;1.88;;
26750;SDS011;14345;48.272;25.926;2023-07-16T11:59:02;3.15;;;2.08;;
26750;SDS011;14345;48.272;25.926;2023-07-16T12:01:28;4.20;;;2.10;;
26750;SDS011;14345;48.272;25.926;2023-07-16T12:03:54;3.85;;;2.00;;
26750;SDS011;14345;48.272;25.926;2023-07-16T12:06:20;5.95;;;2.10;;
26750;SDS011;14345;48.272;25.926;2023-07-16T12:08:46;3.08;;;1.80;;
26750;SDS011;14345;48.272;25.926;2023-07-16T12:11:12;2.90;;;1.80;;
26750;SDS011;14345;48.272;25.926;2023-07-16T12:13:38;1.98;;;1.75;;
26750;SDS011;14345;48.272;25.926;2023-07-16T12:16:04;3.58;;;1.77;;
26750;SDS011;14345;48.272;25.926;2023-07-16T12:18:30;4.18;;;1.90;;
26750;SDS011;14345;48.272;25.926;2023-07-16T12:20:56;1.88;;;1.60;;
26750;SDS011;14345;48.272;25.926;2023-07-16T12:23:22;2.00;;;1.73;;
26750;SDS011;14345;48.272;25.926;2023-07-16T12:25:49;2.88;;;1.60;;
26750;SDS011;14345;48.272;25.926;2023-07-16T12:28:15;4.20;;;2.25;;
26750;SDS011;14345;48.272;25.926;2023-07-16T12:30:41;2.08;;;1.63;;
26750;SDS011;14345;48.272;25.926;2023-07-16T12:33:07;2.10;;;1.90;;
26750;SDS011;14345;48.272;25.926;2023-07-16T12:35:33;2.50;;;1.70;;
26750;SDS011;14345;48.272;25.926;2023-07-16T12:37:59;2.95;;;1.70;;
26750;SDS011;14345;48.272;25.926;2023-07-16T12:40:25;1.83;;;1.60;;
26750;SDS011;14345;48.272;25.926;2023-07-16T12:42:51;2.15;;;1.90;;
26750;SDS011;14345;48.272;25.926;2023-07-16T12:45:17;3.22;;;1.75;;
26750;SDS011;14345;48.272;25.926;2023-07-16T12:47:43;1.88;;;1.60;;
26750;SDS011;14345;48.272;25.926;2023-07-16T12:50:09;2.05;;;1.50;;
26750;SDS011;14345;48.272;25.926;2023-07-16T12:52:35;2.05;;;1.85;;
26750;SDS011;14345;48.272;25.926;2023-07-16T12:55:02;1.77;;;1.67;;
26750;SDS011;14345;48.272;25.926;2023-07-16T12:57:28;2.10;;;1.70;;
26750;SDS011;14345;48.272;25.926;2023-07-16T12:59:54;1.58;;;1.48;;
26750;SDS011;14345;48.272;25.926;2023-07-16T13:02:20;3.13;;;2.00;;
26750;SDS011;14345;48.272;25.926;2023-07-16T13:04:46;3.50;;;1.55;;
26750;SDS011;14345;48.272;25.926;2023-07-16T13:07:12;2.95;;;1.65;;
26750;SDS011;14345;48.272;25.926;2023-07-16T13:09:38;1.77;;;1.50;;
26750;SDS011;14345;48.272;25.926;2023-07-16T13:12:04;1.58;;;1.30;;
26750;SDS011;14345;48.272;25.926;2023-07-16T13:14:30;1.63;;;1.48;;
26750;SDS011;14345;48.272;25.926;2023-07-16T13:16:56;2.40;;;1.80;;
26750;SDS011;14345;48.272;25.926;2023-07-16T13:19:22;2.58;;;2.05;;
26750;SDS011;14345;48.272;25.926;2023-07-16T13:21:48;2.40;;;2.20;;
26750;SDS011;14345;48.272;25.926;2023-07-16T13:24:14;1.60;;;1.50;;
26750;SDS011;14345;48.272;25.926;2023-07-16T13:26:40;1.80;;;1.70;;
26750;SDS011;14345;48.272;25.926;2023-07-16T13:29:06;2.83;;;1.70;;
26750;SDS011;14345;48.272;25.926;2023-07-16T13:31:32;3.53;;;1.48;;
26750;SDS011;14345;48.272;25.926;2023-07-16T13:33:58;1.98;;;1.50;;
26750;SDS011;14345;48.272;25.926;2023-07-16T13:36:24;2.20;;;1.80;;
26750;SDS011;14345;48.272;25.926;2023-07-16T13:38:50;2.10;;;1.90;;
26750;SDS011;14345;48.272;25.926;2023-07-16T13:41:16;4.43;;;1.67;;
26750;SDS011;14345;48.272;25.926;2023-07-16T13:43:42;2.22;;;1.42;;
26750;SDS011;14345;48.272;25.926;2023-07-16T13:46:08;1.60;;;1.50;;
26750;SDS011;14345;48.272;25.926;2023-07-16T13:48:34;1.85;;;1.40;;
26750;SDS011;14345;48.272;25.926;2023-07-16T13:51:00;1.63;;;1.52;;
26750;SDS011;14345;48.272;25.926;2023-07-16T13:53:26;2.28;;;1.83;;
26750;SDS011;14345;48.272;25.926;2023-07-16T13:55:52;4.45;;;1.70;;
26750;SDS011;14345;48.272;25.926;2023-07-16T13:58:18;5.05;;;1.80;;
26750;SDS011;14345;48.272;25.926;2023-07-16T14:00:44;2.92;;;2.30;;
26750;SDS011;14345;48.272;25.926;2023-07-16T14:03:10;2.00;;;1.50;;
26750;SDS011;14345;48.272;25.926;2023-07-16T14:05:36;2.30;;;1.40;;
26750;SDS011;14345;48.272;25.926;2023-07-16T14:08:04;2.80;;;1.90;;
26750;SDS011;14345;48.272;25.926;2023-07-16T14:10:30;1.40;;;1.30;;
26750;SDS011;14345;48.272;25.926;2023-07-16T14:12:56;3.92;;;1.38;;
26750;SDS011;14345;48.272;25.926;2023-07-16T14:15:23;1.70;;;1.38;;
26750;SDS011;14345;48.272;25.926;2023-07-16T14:17:49;2.33;;;1.75;;
26750;SDS011;14345;48.272;25.926;2023-07-16T14:20:14;2.33;;;1.70;;
26750;SDS011;14345;48.272;25.926;2023-07-16T14:22:40;2.10;;;1.52;;
26750;SDS011;14345;48.272;25.926;2023-07-16T14:25:06;2.47;;;1.30;;
26750;SDS011;14345;48.272;25.926;2023-07-16T14:27:34;1.75;;;1.40;;
26750;SDS011;14345;48.272;25.926;2023-07-16T14:30:00;1.95;;;1.27;;
26750;SDS011;14345;48.272;25.926;2023-07-16T14:32:26;1.67;;;1.50;;
26750;SDS011;14345;48.272;25.926;2023-07-16T14:34:52;1.85;;;1.40;;
26750;SDS011;14345;48.272;25.926;2023-07-16T14:37:18;1.50;;;1.40;;
26750;SDS011;14345;48.272;25.926;2023-07-16T14:39:44;1.52;;;1.40;;
26750;SDS011;14345;48.272;25.926;2023-07-16T14:42:10;3.03;;;1.65;;